sensor_id;sensor_type;location;lat;lon;timestamp;temperature;humidity
31731;DHT22;18310;55.586;12.286;2023-02-02T00:01:52;7.80;75.10
31731;DHT22;18310;55.586;12.286;2023-02-02T00:04:56;7.10;74.30
31731;DHT22;18310;55.586;12.286;2023-02-02T00:07:59;7.00;74.60
31731;DHT22;18310;55.586;12.286;2023-02-02T00:11:03;7.10;74.10
31731;DHT22;18310;55.586;12.286;2023-02-02T00:14:09;8.20;75.20
31731;DHT22;18310;55.586;12.286;2023-02-02T00:17:13;7.00;74.30
31731;DHT22;18310;55.586;12.286;2023-02-02T00:20:16;7.00;74.10
31731;DHT22;18310;55.586;12.286;2023-02-02T00:23:19;4.90;72.90
31731;DHT22;18310;55.586;12.286;2023-02-02T00:26:22;6.90;74.10
31731;DHT22;18310;55.586;12.286;2023-02-02T00:29:29;6.80;74.00
31731;DHT22;18310;55.586;12.286;2023-02-02T00:32:33;6.80;73.90
31731;DHT22;18310;55.586;12.286;2023-02-02T00:35:39;6.70;74.50
31731;DHT22;18310;55.586;12.286;2023-02-02T00:38:44;6.70;74.20
31731;DHT22;18310;55.586;12.286;2023-02-02T00:41:47;6.70;74.30
31731;DHT22;18310;55.586;12.286;2023-02-02T00:44:52;6.70;74.30
31731;DHT22;18310;55.586;12.286;2023-02-02T00:48:13;6.60;74.00
31731;DHT22;18310;55.586;12.286;2023-02-02T00:51:16;6.60;73.20
31731;DHT22;18310;55.586;12.286;2023-02-02T00:54:19;6.50;73.70
31731;DHT22;18310;55.586;12.286;2023-02-02T00:57:23;6.20;73.40
31731;DHT22;18310;55.586;12.286;2023-02-02T01:00:27;6.20;73.40
31731;DHT22;18310;55.586;12.286;2023-02-02T01:03:30;7.90;74.30
31731;DHT22;18310;55.586;12.286;2023-02-02T01:06:34;6.40;73.70
31731;DHT22;18310;55.586;12.286;2023-02-02T01:09:37;7.40;73.90
31731;DHT22;18310;55.586;12.286;2023-02-02T01:12:40;6.40;73.00
31731;DHT22;18310;55.586;12.286;2023-02-02T01:15:45;6.30;73.10
31731;DHT22;18310;55.586;12.286;2023-02-02T01:18:48;7.10;73.40
31731;DHT22;18310;55.586;12.286;2023-02-02T01:21:52;6.30;73.10
31731;DHT22;18310;55.586;12.286;2023-02-02T01:24:56;6.70;73.30
31731;DHT22;18310;55.586;12.286;2023-02-02T01:27:59;6.30;73.10
31731;DHT22;18310;55.586;12.286;2023-02-02T01:31:07;6.30;73.10
31731;DHT22;18310;55.586;12.286;2023-02-02T01:34:16;6.30;73.00
31731;DHT22;18310;55.586;12.286;2023-02-02T01:37:24;6.20;72.90
31731;DHT22;18310;55.586;12.286;2023-02-02T01:40:27;6.20;73.60
31731;DHT22;18310;55.586;12.286;2023-02-02T01:43:50;6.30;72.90
31731;DHT22;18310;55.586;12.286;2023-02-02T01:46:57;4.20;71.60
31731;DHT22;18310;55.586;12.286;2023-02-02T01:50:00;6.10;72.60
31731;DHT22;18310;55.586;12.286;2023-02-02T01:53:06;6.20;71.10
31731;DHT22;18310;55.586;12.286;2023-02-02T01:56:24;6.20;71.70
31731;DHT22;18310;55.586;12.286;2023-02-02T01:59:30;6.20;70.70
31731;DHT22;18310;55.586;12.286;2023-02-02T02:02:36;6.20;70.90
31731;DHT22;18310;55.586;12.286;2023-02-02T02:05:46;6.20;70.00
31731;DHT22;18310;55.586;12.286;2023-02-02T02:08:56;6.30;69.30
31731;DHT22;18310;55.586;12.286;2023-02-02T02:12:00;6.10;69.80
31731;DHT22;18310;55.586;12.286;2023-02-02T02:15:04;6.10;69.90
31731;DHT22;18310;55.586;12.286;2023-02-02T02:18:35;6.10;69.80
31731;DHT22;18310;55.586;12.286;2023-02-02T02:21:55;6.10;69.80
31731;DHT22;18310;55.586;12.286;2023-02-02T02:25:38;6.00;69.50
31731;DHT22;18310;55.586;12.286;2023-02-02T02:29:42;7.10;70.10
31731;DHT22;18310;55.586;12.286;2023-02-02T02:33:05;6.10;69.50
31731;DHT22;18310;55.586;12.286;2023-02-02T02:36:18;6.00;69.80
31731;DHT22;18310;55.586;12.286;2023-02-02T02:39:33;7.70;70.70
31731;DHT22;18310;55.586;12.286;2023-02-02T02:42:43;6.00;69.50
31731;DHT22;18310;55.586;12.286;2023-02-02T02:45:50;6.00;69.30
31731;DHT22;18310;55.586;12.286;2023-02-02T02:48:57;6.00;69.20
31731;DHT22;18310;55.586;12.286;2023-02-02T02:52:02;7.60;69.60
31731;DHT22;18310;55.586;12.286;2023-02-02T03:04:42;5.90;67.20
31731;DHT22;18310;55.586;12.286;2023-02-02T03:08:03;5.80;67.20
31731;DHT22;18310;55.586;12.286;2023-02-02T03:11:13;5.50;68.10
31731;DHT22;18310;55.586;12.286;2023-02-02T04:21:53;4.70;74.20
31731;DHT22;18310;55.586;12.286;2023-02-02T05:23:18;4.80;73.30
31731;DHT22;18310;55.586;12.286;2023-02-02T08:12:59;4.20;70.10
31731;DHT22;18310;55.586;12.286;2023-02-02T08:16:04;4.10;70.80
31731;DHT22;18310;55.586;12.286;2023-02-02T08:59:05;4.70;69.40
31731;DHT22;18310;55.586;12.286;2023-02-02T09:02:09;7.80;71.00
31731;DHT22;18310;55.586;12.286;2023-02-02T09:23:38;7.40;70.00
31731;DHT22;18310;55.586;12.286;2023-02-02T09:26:43;5.10;69.80
31731;DHT22;18310;55.586;12.286;2023-02-02T09:29:48;5.20;70.30
31731;DHT22;18310;55.586;12.286;2023-02-02T09:32:53;5.20;69.90
31731;DHT22;18310;55.586;12.286;2023-02-02T09:36:03;7.30;71.00
31731;DHT22;18310;55.586;12.286;2023-02-02T09:39:08;4.60;68.80
31731;DHT22;18310;55.586;12.286;2023-02-02T09:42:31;5.40;69.10
31731;DHT22;18310;55.586;12.286;2023-02-02T09:45:52;6.10;69.00
31731;DHT22;18310;55.586;12.286;2023-02-02T09:49:06;5.50;69.30
31731;DHT22;18310;55.586;12.286;2023-02-02T09:52:15;6.30;69.20
31731;DHT22;18310;55.586;12.286;2023-02-02T09:55:27;5.60;68.30
31731;DHT22;18310;55.586;12.286;2023-02-02T09:58:40;5.60;68.30
31731;DHT22;18310;55.586;12.286;2023-02-02T10:01:53;6.00;68.30
31731;DHT22;18310;55.586;12.286;2023-02-02T10:05:03;5.70;68.00
31731;DHT22;18310;55.586;12.286;2023-02-02T10:08:17;5.80;68.40
31731;DHT22;18310;55.586;12.286;2023-02-02T10:11:40;5.80;68.30
31731;DHT22;18310;55.586;12.286;2023-02-02T10:14:52;5.90;67.90
31731;DHT22;18310;55.586;12.286;2023-02-02T10:18:05;6.00;67.90
31731;DHT22;18310;55.586;12.286;2023-02-02T10:21:25;6.00;67.70
31731;DHT22;18310;55.586;12.286;2023-02-02T10:24:33;6.00;67.10
31731;DHT22;18310;55.586;12.286;2023-02-02T10:27:39;6.10;67.10
31731;DHT22;18310;55.586;12.286;2023-02-02T10:30:46;6.10;66.70
31731;DHT22;18310;55.586;12.286;2023-02-02T10:34:03;6.10;66.90
31731;DHT22;18310;55.586;12.286;2023-02-02T10:37:20;6.20;66.70
31731;DHT22;18310;55.586;12.286;2023-02-02T10:40:41;6.80;67.50
31731;DHT22;18310;55.586;12.286;2023-02-02T10:44:05;6.30;66.20
31731;DHT22;18310;55.586;12.286;2023-02-02T10:47:23;5.00;65.60
31731;DHT22;18310;55.586;12.286;2023-02-02T10:50:30;6.30;65.90
31731;DHT22;18310;55.586;12.286;2023-02-02T10:53:33;6.40;66.40
31731;DHT22;18310;55.586;12.286;2023-02-02T10:56:41;6.40;66.60
31731;DHT22;18310;55.586;12.286;2023-02-02T10:59:59;6.20;66.20
31731;DHT22;18310;55.586;12.286;2023-02-02T11:03:09;7.70;66.80
31731;DHT22;18310;55.586;12.286;2023-02-02T11:06:16;6.60;66.60
31731;DHT22;18310;55.586;12.286;2023-02-02T11:09:39;6.70;66.60
31731;DHT22;18310;55.586;12.286;2023-02-02T11:12:46;8.10;66.20
31731;DHT22;18310;55.586;12.286;2023-02-02T11:16:18;6.90;65.10
31731;DHT22;18310;55.586;12.286;2023-02-02T11:19:27;7.60;64.60
31731;DHT22;18310;55.586;12.286;2023-02-02T11:22:35;6.90;64.70
31731;DHT22;18310;55.586;12.286;2023-02-02T11:25:40;6.90;64.20
31731;DHT22;18310;55.586;12.286;2023-02-02T11:28:47;7.00;64.20
31731;DHT22;18310;55.586;12.286;2023-02-02T11:31:51;9.00;65.20
31731;DHT22;18310;55.586;12.286;2023-02-02T11:35:16;5.60;63.70
31731;DHT22;18310;55.586;12.286;2023-02-02T11:38:24;7.00;63.90
31731;DHT22;18310;55.586;12.286;2023-02-02T11:41:30;7.10;64.20
31731;DHT22;18310;55.586;12.286;2023-02-02T11:44:33;7.10;63.90
31731;DHT22;18310;55.586;12.286;2023-02-02T11:47:44;7.20;64.60
31731;DHT22;18310;55.586;12.286;2023-02-02T11:50:49;7.20;63.70
31731;DHT22;18310;55.586;12.286;2023-02-02T11:54:03;7.20;63.40
31731;DHT22;18310;55.586;12.286;2023-02-02T11:57:09;7.20;62.30
31731;DHT22;18310;55.586;12.286;2023-02-02T12:00:17;7.20;62.80
31731;DHT22;18310;55.586;12.286;2023-02-02T12:03:33;7.30;62.80
31731;DHT22;18310;55.586;12.286;2023-02-02T12:06:37;7.30;62.90
31731;DHT22;18310;55.586;12.286;2023-02-02T12:09:42;7.30;62.10
31731;DHT22;18310;55.586;12.286;2023-02-02T12:12:53;8.30;60.70
31731;DHT22;18310;55.586;12.286;2023-02-02T12:16:07;7.40;61.80
31731;DHT22;18310;55.586;12.286;2023-02-02T12:19:37;7.40;61.80
31731;DHT22;18310;55.586;12.286;2023-02-02T12:23:19;7.40;60.60
31731;DHT22;18310;55.586;12.286;2023-02-02T12:26:33;7.40;59.30
31731;DHT22;18310;55.586;12.286;2023-02-02T12:29:58;7.30;61.30
31731;DHT22;18310;55.586;12.286;2023-02-02T12:33:24;7.30;60.10
31731;DHT22;18310;55.586;12.286;2023-02-02T12:36:42;7.30;61.00
31731;DHT22;18310;55.586;12.286;2023-02-02T12:40:00;7.30;60.10
31731;DHT22;18310;55.586;12.286;2023-02-02T12:43:25;7.20;60.10
31731;DHT22;18310;55.586;12.286;2023-02-02T12:50:23;7.10;60.10
31731;DHT22;18310;55.586;12.286;2023-02-02T12:53:40;7.10;60.20
31731;DHT22;18310;55.586;12.286;2023-02-02T12:57:25;7.10;60.70
31731;DHT22;18310;55.586;12.286;2023-02-02T13:04:56;7.00;60.10
31731;DHT22;18310;55.586;12.286;2023-02-02T13:08:16;7.00;60.80
31731;DHT22;18310;55.586;12.286;2023-02-02T13:11:31;6.70;60.90
31731;DHT22;18310;55.586;12.286;2023-02-02T13:14:42;6.80;60.40
31731;DHT22;18310;55.586;12.286;2023-02-02T13:17:52;6.80;61.60
31731;DHT22;18310;55.586;12.286;2023-02-02T13:21:01;8.90;63.60
31731;DHT22;18310;55.586;12.286;2023-02-02T13:24:11;6.70;62.10
31731;DHT22;18310;55.586;12.286;2023-02-02T13:27:20;5.90;61.70
31731;DHT22;18310;55.586;12.286;2023-02-02T13:30:30;6.70;62.50
31731;DHT22;18310;55.586;12.286;2023-02-02T13:33:38;6.80;62.60
31731;DHT22;18310;55.586;12.286;2023-02-02T13:36:48;6.80;62.70
31731;DHT22;18310;55.586;12.286;2023-02-02T13:39:56;6.80;62.50
31731;DHT22;18310;55.586;12.286;2023-02-02T13:43:14;6.80;62.60
31731;DHT22;18310;55.586;12.286;2023-02-02T13:46:32;6.70;61.30
31731;DHT22;18310;55.586;12.286;2023-02-02T13:49:44;8.20;63.10
31731;DHT22;18310;55.586;12.286;2023-02-02T13:53:05;6.60;62.30
31731;DHT22;18310;55.586;12.286;2023-02-02T13:56:37;7.50;62.60
31731;DHT22;18310;55.586;12.286;2023-02-02T14:00:00;6.30;61.80
31731;DHT22;18310;55.586;12.286;2023-02-02T14:03:25;6.60;62.10
31731;DHT22;18310;55.586;12.286;2023-02-02T14:06:53;6.60;61.60
31731;DHT22;18310;55.586;12.286;2023-02-02T14:10:00;6.60;61.90
31731;DHT22;18310;55.586;12.286;2023-02-02T14:13:08;6.60;62.30
31731;DHT22;18310;55.586;12.286;2023-02-02T14:16:48;6.60;62.30
31731;DHT22;18310;55.586;12.286;2023-02-02T14:19:54;5.70;61.70
31731;DHT22;18310;55.586;12.286;2023-02-02T14:22:59;6.80;62.70
31731;DHT22;18310;55.586;12.286;2023-02-02T14:26:05;6.90;62.80
31731;DHT22;18310;55.586;12.286;2023-02-02T14:29:36;6.60;62.90
31731;DHT22;18310;55.586;12.286;2023-02-02T14:33:23;6.00;62.40
31731;DHT22;18310;55.586;12.286;2023-02-02T14:36:29;6.10;63.20
31731;DHT22;18310;55.586;12.286;2023-02-02T14:39:34;6.70;63.30
31731;DHT22;18310;55.586;12.286;2023-02-02T14:42:49;6.60;62.80
31731;DHT22;18310;55.586;12.286;2023-02-02T14:46:25;8.30;64.00
31731;DHT22;18310;55.586;12.286;2023-02-02T14:49:36;6.70;62.70
31731;DHT22;18310;55.586;12.286;2023-02-02T14:52:39;6.60;62.70
31731;DHT22;18310;55.586;12.286;2023-02-02T14:55:56;6.60;62.70
31731;DHT22;18310;55.586;12.286;2023-02-02T14:59:03;6.60;62.90
31731;DHT22;18310;55.586;12.286;2023-02-02T15:02:14;6.50;63.10
31731;DHT22;18310;55.586;12.286;2023-02-02T15:05:41;7.00;63.50
31731;DHT22;18310;55.586;12.286;2023-02-02T15:12:43;6.40;63.50
31731;DHT22;18310;55.586;12.286;2023-02-02T15:15:50;6.30;63.50
31731;DHT22;18310;55.586;12.286;2023-02-02T15:19:11;4.00;62.30
31731;DHT22;18310;55.586;12.286;2023-02-02T15:22:28;6.10;63.70
31731;DHT22;18310;55.586;12.286;2023-02-02T15:25:39;6.00;63.90
31731;DHT22;18310;55.586;12.286;2023-02-02T15:28:51;5.80;63.90
31731;DHT22;18310;55.586;12.286;2023-02-02T15:31:58;5.80;64.00
31731;DHT22;18310;55.586;12.286;2023-02-02T15:35:04;7.90;65.30
31731;DHT22;18310;55.586;12.286;2023-02-02T15:38:18;5.70;64.30
31731;DHT22;18310;55.586;12.286;2023-02-02T15:41:25;3.90;63.30
31731;DHT22;18310;55.586;12.286;2023-02-02T15:44:36;6.60;65.10
31731;DHT22;18310;55.586;12.286;2023-02-02T15:47:39;5.50;64.10
31731;DHT22;18310;55.586;12.286;2023-02-02T15:50:44;5.40;64.60
31731;DHT22;18310;55.586;12.286;2023-02-02T15:53:49;5.40;64.70
31731;DHT22;18310;55.586;12.286;2023-02-02T15:56:57;5.30;64.80
31731;DHT22;18310;55.586;12.286;2023-02-02T16:00:22;5.30;64.90
31731;DHT22;18310;55.586;12.286;2023-02-02T16:03:35;5.30;64.70
31731;DHT22;18310;55.586;12.286;2023-02-02T16:06:44;5.20;65.00
31731;DHT22;18310;55.586;12.286;2023-02-02T16:09:48;5.10;64.90
31731;DHT22;18310;55.586;12.286;2023-02-02T16:12:52;6.80;66.00
31731;DHT22;18310;55.586;12.286;2023-02-02T16:15:59;5.90;65.30
31731;DHT22;18310;55.586;12.286;2023-02-02T16:19:12;5.50;65.20
31731;DHT22;18310;55.586;12.286;2023-02-02T16:22:19;6.20;66.40
31731;DHT22;18310;55.586;12.286;2023-02-02T16:25:26;5.10;65.90
31731;DHT22;18310;55.586;12.286;2023-02-02T16:28:33;3.10;64.50
31731;DHT22;18310;55.586;12.286;2023-02-02T16:31:38;5.10;65.50
31731;DHT22;18310;55.586;12.286;2023-02-02T16:34:42;5.00;65.30
31731;DHT22;18310;55.586;12.286;2023-02-02T16:37:48;5.10;65.40
31731;DHT22;18310;55.586;12.286;2023-02-02T16:41:04;5.00;65.30
31731;DHT22;18310;55.586;12.286;2023-02-02T16:44:29;4.90;65.50
31731;DHT22;18310;55.586;12.286;2023-02-02T16:47:36;4.90;65.80
31731;DHT22;18310;55.586;12.286;2023-02-02T16:50:40;4.90;65.70
31731;DHT22;18310;55.586;12.286;2023-02-02T16:54:16;4.80;65.70
31731;DHT22;18310;55.586;12.286;2023-02-02T16:57:25;5.50;65.90
31731;DHT22;18310;55.586;12.286;2023-02-02T17:00:30;5.10;66.00
31731;DHT22;18310;55.586;12.286;2023-02-02T17:03:39;4.80;65.90
31731;DHT22;18310;55.586;12.286;2023-02-02T17:06:55;4.80;65.90
31731;DHT22;18310;55.586;12.286;2023-02-02T17:10:13;3.30;65.10
31731;DHT22;18310;55.586;12.286;2023-02-02T17:13:38;4.80;66.00
31731;DHT22;18310;55.586;12.286;2023-02-02T17:16:42;5.70;66.40
31731;DHT22;18310;55.586;12.286;2023-02-02T17:19:47;4.80;65.50
31731;DHT22;18310;55.586;12.286;2023-02-02T17:22:52;6.50;66.50
31731;DHT22;18310;55.586;12.286;2023-02-02T17:25:57;4.70;66.00
31731;DHT22;18310;55.586;12.286;2023-02-02T17:29:03;4.70;66.00
31731;DHT22;18310;55.586;12.286;2023-02-02T17:32:08;4.70;66.10
31731;DHT22;18310;55.586;12.286;2023-02-02T17:35:24;4.70;66.10
31731;DHT22;18310;55.586;12.286;2023-02-02T17:38:44;4.60;66.10
31731;DHT22;18310;55.586;12.286;2023-02-02T17:41:48;3.50;65.50
31731;DHT22;18310;55.586;12.286;2023-02-02T17:44:52;4.60;66.20
31731;DHT22;18310;55.586;12.286;2023-02-02T17:47:55;4.60;66.30
31731;DHT22;18310;55.586;12.286;2023-02-02T17:51:00;6.30;67.90
31731;DHT22;18310;55.586;12.286;2023-02-02T17:54:12;4.50;66.50
31731;DHT22;18310;55.586;12.286;2023-02-02T17:57:16;4.50;66.60
31731;DHT22;18310;55.586;12.286;2023-02-02T18:00:22;4.50;66.50
31731;DHT22;18310;55.586;12.286;2023-02-02T18:03:28;4.50;66.70
31731;DHT22;18310;55.586;12.286;2023-02-02T18:06:36;6.30;67.80
31731;DHT22;18310;55.586;12.286;2023-02-02T18:09:40;4.40;66.70
31731;DHT22;18310;55.586;12.286;2023-02-02T18:12:43;4.40;66.80
31731;DHT22;18310;55.586;12.286;2023-02-02T18:15:47;4.40;66.70
31731;DHT22;18310;55.586;12.286;2023-02-02T18:18:50;4.40;66.80
31731;DHT22;18310;55.586;12.286;2023-02-02T18:21:56;4.10;66.70
31731;DHT22;18310;55.586;12.286;2023-02-02T18:24:59;2.80;66.30
31731;DHT22;18310;55.586;12.286;2023-02-02T18:28:02;4.30;67.40
31731;DHT22;18310;55.586;12.286;2023-02-02T18:31:07;4.20;66.40
31731;DHT22;18310;55.586;12.286;2023-02-02T18:34:11;5.30;67.60
31731;DHT22;18310;55.586;12.286;2023-02-02T18:37:16;4.20;67.00
31731;DHT22;18310;55.586;12.286;2023-02-02T18:40:20;4.10;67.10
31731;DHT22;18310;55.586;12.286;2023-02-02T18:43:25;4.20;68.30
31731;DHT22;18310;55.586;12.286;2023-02-02T18:46:28;4.10;69.20
31731;DHT22;18310;55.586;12.286;2023-02-02T18:49:34;4.40;69.00
31731;DHT22;18310;55.586;12.286;2023-02-02T18:52:40;4.20;68.50
31731;DHT22;18310;55.586;12.286;2023-02-02T18:55:43;4.10;68.20
31731;DHT22;18310;55.586;12.286;2023-02-02T18:58:53;4.20;68.20
31731;DHT22;18310;55.586;12.286;2023-02-02T19:02:00;4.10;68.20
31731;DHT22;18310;55.586;12.286;2023-02-02T19:05:06;6.20;69.20
31731;DHT22;18310;55.586;12.286;2023-02-02T19:08:28;4.10;68.10
31731;DHT22;18310;55.586;12.286;2023-02-02T19:11:37;3.60;67.90
31731;DHT22;18310;55.586;12.286;2023-02-02T19:14:43;4.60;68.50
31731;DHT22;18310;55.586;12.286;2023-02-02T19:17:48;4.00;68.10
31731;DHT22;18310;55.586;12.286;2023-02-02T19:20:53;4.00;68.10
31731;DHT22;18310;55.586;12.286;2023-02-02T19:23:58;4.00;68.00
31731;DHT22;18310;55.586;12.286;2023-02-02T19:27:02;4.00;68.20
31731;DHT22;18310;55.586;12.286;2023-02-02T19:30:19;3.90;68.10
31731;DHT22;18310;55.586;12.286;2023-02-02T19:33:37;4.00;68.30
31731;DHT22;18310;55.586;12.286;2023-02-02T19:36:42;4.30;68.70
31731;DHT22;18310;55.586;12.286;2023-02-02T19:39:48;3.90;68.30
31731;DHT22;18310;55.586;12.286;2023-02-02T19:42:54;3.90;68.40
31731;DHT22;18310;55.586;12.286;2023-02-02T19:46:01;2.90;68.00
31731;DHT22;18310;55.586;12.286;2023-02-02T19:49:14;3.90;68.50
31731;DHT22;18310;55.586;12.286;2023-02-02T19:52:21;3.90;68.60
31731;DHT22;18310;55.586;12.286;2023-02-02T19:55:34;5.90;69.70
31731;DHT22;18310;55.586;12.286;2023-02-02T19:58:38;3.90;68.80
31731;DHT22;18310;55.586;12.286;2023-02-02T20:01:41;3.90;68.70
31731;DHT22;18310;55.586;12.286;2023-02-02T20:04:47;3.90;68.80
31731;DHT22;18310;55.586;12.286;2023-02-02T20:08:04;5.10;69.40
31731;DHT22;18310;55.586;12.286;2023-02-02T20:11:24;4.30;68.90
31731;DHT22;18310;55.586;12.286;2023-02-02T20:14:32;3.90;68.90
31731;DHT22;18310;55.586;12.286;2023-02-02T20:17:37;5.30;69.50
31731;DHT22;18310;55.586;12.286;2023-02-02T20:20:44;5.80;69.70
31731;DHT22;18310;55.586;12.286;2023-02-02T20:23:50;3.90;68.60
31731;DHT22;18310;55.586;12.286;2023-02-02T20:26:57;3.90;68.60
31731;DHT22;18310;55.586;12.286;2023-02-02T20:30:18;3.90;68.80
31731;DHT22;18310;55.586;12.286;2023-02-02T20:33:26;3.90;68.90
31731;DHT22;18310;55.586;12.286;2023-02-02T20:36:38;4.50;69.20
31731;DHT22;18310;55.586;12.286;2023-02-02T20:39:45;4.40;69.30
31731;DHT22;18310;55.586;12.286;2023-02-02T20:42:51;3.90;69.00
31731;DHT22;18310;55.586;12.286;2023-02-02T20:45:55;3.90;69.00
31731;DHT22;18310;55.586;12.286;2023-02-02T20:48:58;4.00;69.20
31731;DHT22;18310;55.586;12.286;2023-02-02T20:52:17;4.00;69.70
31731;DHT22;18310;55.586;12.286;2023-02-02T20:55:24;4.00;69.30
31731;DHT22;18310;55.586;12.286;2023-02-02T20:58:30;4.00;69.30
31731;DHT22;18310;55.586;12.286;2023-02-02T21:01:33;5.50;70.30
31731;DHT22;18310;55.586;12.286;2023-02-02T21:04:36;4.10;69.70
31731;DHT22;18310;55.586;12.286;2023-02-02T21:07:40;4.50;69.90
31731;DHT22;18310;55.586;12.286;2023-02-02T21:10:45;4.10;69.80
31731;DHT22;18310;55.586;12.286;2023-02-02T21:13:52;4.20;69.90
31731;DHT22;18310;55.586;12.286;2023-02-02T21:16:58;4.20;70.00
31731;DHT22;18310;55.586;12.286;2023-02-02T21:20:20;4.30;70.10
31731;DHT22;18310;55.586;12.286;2023-02-02T21:23:27;4.30;69.90
31731;DHT22;18310;55.586;12.286;2023-02-02T21:26:31;4.90;70.60
31731;DHT22;18310;55.586;12.286;2023-02-02T21:29:36;4.40;70.00
31731;DHT22;18310;55.586;12.286;2023-02-02T21:32:44;4.40;70.50
31731;DHT22;18310;55.586;12.286;2023-02-02T21:36:06;5.70;71.20
31731;DHT22;18310;55.586;12.286;2023-02-02T21:39:35;4.60;70.40
31731;DHT22;18310;55.586;12.286;2023-02-02T21:42:46;4.70;70.10
31731;DHT22;18310;55.586;12.286;2023-02-02T21:45:55;4.80;70.20
31731;DHT22;18310;55.586;12.286;2023-02-02T21:49:12;4.70;70.20
31731;DHT22;18310;55.586;12.286;2023-02-02T21:52:22;3.60;69.20
31731;DHT22;18310;55.586;12.286;2023-02-02T21:55:31;4.80;70.00
31731;DHT22;18310;55.586;12.286;2023-02-02T21:58:37;4.90;70.00
31731;DHT22;18310;55.586;12.286;2023-02-02T22:01:42;4.90;69.90
31731;DHT22;18310;55.586;12.286;2023-02-02T22:04:47;4.90;70.20
31731;DHT22;18310;55.586;12.286;2023-02-02T22:07:51;5.00;69.90
31731;DHT22;18310;55.586;12.286;2023-02-02T22:14:14;5.10;69.50
31731;DHT22;18310;55.586;12.286;2023-02-02T22:17:23;5.10;70.10
31731;DHT22;18310;55.586;12.286;2023-02-02T22:20:31;5.10;69.60
31731;DHT22;18310;55.586;12.286;2023-02-02T22:23:38;5.20;70.00
31731;DHT22;18310;55.586;12.286;2023-02-02T22:26:41;5.80;70.40
31731;DHT22;18310;55.586;12.286;2023-02-02T22:29:45;3.10;68.90
31731;DHT22;18310;55.586;12.286;2023-02-02T22:32:49;5.30;70.10
31731;DHT22;18310;55.586;12.286;2023-02-02T22:35:53;5.30;70.30
31731;DHT22;18310;55.586;12.286;2023-02-02T22:38:59;5.40;70.20
31731;DHT22;18310;55.586;12.286;2023-02-02T22:42:04;5.40;70.20
31731;DHT22;18310;55.586;12.286;2023-02-02T22:45:09;5.40;70.20
31731;DHT22;18310;55.586;12.286;2023-02-02T22:48:19;5.50;70.40
31731;DHT22;18310;55.586;12.286;2023-02-02T22:51:25;5.50;70.50
31731;DHT22;18310;55.586;12.286;2023-02-02T22:54:29;5.50;70.10
31731;DHT22;18310;55.586;12.286;2023-02-02T23:03:41;5.80;69.90
31731;DHT22;18310;55.586;12.286;2023-02-02T23:06:44;3.50;68.80
31731;DHT22;18310;55.586;12.286;2023-02-02T23:15:59;5.90;69.80
31731;DHT22;18310;55.586;12.286;2023-02-02T23:19:04;5.90;69.60
31731;DHT22;18310;55.586;12.286;2023-02-02T23:22:07;5.80;70.10
31731;DHT22;18310;55.586;12.286;2023-02-02T23:25:11;5.80;70.10
31731;DHT22;18310;55.586;12.286;2023-02-02T23:28:15;5.80;70.00
31731;DHT22;18310;55.586;12.286;2023-02-02T23:31:18;5.80;69.80
31731;DHT22;18310;55.586;12.286;2023-02-02T23:34:23;5.80;69.50
31731;DHT22;18310;55.586;12.286;2023-02-02T23:37:26;4.30;68.50
31731;DHT22;18310;55.586;12.286;2023-02-02T23:40:29;5.80;69.30
31731;DHT22;18310;55.586;12.286;2023-02-02T23:43:32;5.90;69.20
31731;DHT22;18310;55.586;12.286;2023-02-02T23:46:36;5.90;69.10
31731;DHT22;18310;55.586;12.286;2023-02-02T23:49:41;5.90;69.20
31731;DHT22;18310;55.586;12.286;2023-02-02T23:52:45;5.90;69.40
31731;DHT22;18310;55.586;12.286;2023-02-02T23:55:48;5.90;69.10
31731;DHT22;18310;55.586;12.286;2023-02-02T23:58:51;6.50;70.00
